Gilgit Weather



Gilgit's Current Weather

Temprature 11.362o few clouds

few clouds

Rain: 0 %

Min Temprature11.362o
Max Temprature11.362o
Humidity25
Wind Speed3.03 m/h
Sun Rise04:47:41
Sun Set19:23:06
Current Time: 26-Jun-2019 14:49:18
Lat/Lon: 35.92, 74.31




Gilgit's Geo Location



Gilgit's Weather Forecast

Time Overall Temp Min Temp Max Temp Humidity Wind Speed Rain
26-Jun-2019 (Wed)
17:00:00 few clouds 11.850 11.850 11.850 22 2.62 m/h 0 %
20:00:00 clear sky 9.350 9.347 9.350 39 0.91 m/h 0 %
23:00:00 clear sky 7.840 7.840 7.840 45 1.21 m/h 0 %
27-Jun-2019 (Thu)
02:00:00 clear sky 6.180 6.179 6.180 49 1.25 m/h 0 %
05:00:00 clear sky 4.765 4.765 4.765 50 1.5 m/h 0 %
08:00:00 clear sky 8.650 8.650 8.650 33 1.26 m/h 0 %
11:00:00 clear sky 11.274 11.274 11.274 30 1.96 m/h 0 %
14:00:00 light rain 10.950 10.950 10.950 36 1.28 m/h 69 %
17:00:00 light rain 11.780 11.780 11.780 37 2.19 m/h 50 %
20:00:00 light rain 4.894 4.894 4.894 80 1.75 m/h 288 %
23:00:00 light rain 5.935 5.935 5.935 73 2.36 m/h 119 %
28-Jun-2019 (Fri)
02:00:00 light rain 4.328 4.328 4.328 82 1.29 m/h 56 %
05:00:00 light snow 4.128 4.128 4.128 80 0.5 m/h 0 %
08:00:00 clear sky 7.139 7.139 7.139 56 1.23 m/h 0 %
11:00:00 light rain 10.425 10.425 10.425 44 1.71 m/h 50 %
14:00:00 light rain 12.031 12.031 12.031 39 1.64 m/h 106 %
17:00:00 light rain 12.950 12.950 12.950 34 0.89 m/h 50 %
20:00:00 broken clouds 11.650 11.650 11.650 43 2.73 m/h 0 %
23:00:00 light rain 9.272 9.272 9.272 58 1.94 m/h 44 %
29-Jun-2019 (Sat)
02:00:00 few clouds 7.872 7.872 7.872 64 0.3 m/h 0 %
05:00:00 few clouds 6.269 6.269 6.269 71 0.36 m/h 0 %
08:00:00 light rain 9.797 9.797 9.797 51 1.19 m/h 19 %
11:00:00 light rain 12.350 12.350 12.350 41 1.81 m/h 106 %
14:00:00 light rain 14.350 14.350 14.350 31 1.77 m/h 81 %
17:00:00 light rain 14.891 14.891 14.891 32 4.44 m/h 13 %
20:00:00 light rain 6.950 6.950 6.950 77 3.19 m/h 213 %
23:00:00 moderate rain 4.850 4.850 4.850 91 2.89 m/h 375 %
30-Jun-2019 (Sun)
02:00:00 light rain 4.676 4.676 4.676 91 2.49 m/h 206 %
05:00:00 light rain 4.792 4.792 4.792 86 2.29 m/h 38 %
08:00:00 broken clouds 6.132 6.132 6.132 75 1.59 m/h 0 %
11:00:00 broken clouds 10.118 10.118 10.118 56 1.73 m/h 0 %
14:00:00 light rain 12.909 12.909 12.909 42 0.54 m/h 169 %
17:00:00 light rain 13.550 13.550 13.550 35 0.69 m/h 50 %
20:00:00 overcast clouds 9.850 9.850 9.850 60 3.4 m/h 0 %
23:00:00 broken clouds 9.750 9.750 9.750 61 1.44 m/h 0 %
01-Jul-2019 (Mon)
02:00:00 scattered clouds 8.050 8.050 8.050 68 0.35 m/h 0 %
05:00:00 few clouds 6.635 6.635 6.635 69 0.61 m/h 0 %
08:00:00 clear sky 10.950 10.950 10.950 49 1.29 m/h 0 %
11:00:00 clear sky 14.350 14.350 14.350 31 1.86 m/h 0 %
14:00:00 clear sky 16.750 16.750 16.750 20 2.23 m/h 0 %

Famous Cities (60)